createdAt,value
2022-12-01T00:02:21.828Z,42.10
2022-12-01T00:04:49.879Z,39.87
2022-12-01T00:07:17.907Z,38.80
2022-12-01T00:10:03.240Z,40.63
2022-12-01T00:12:36.776Z,39.90
2022-12-01T00:15:06.929Z,39.37
2022-12-01T00:17:34.791Z,39.20
2022-12-01T00:20:02.684Z,41.47
2022-12-01T00:22:30.631Z,39.53
2022-12-01T00:24:58.455Z,37.37
2022-12-01T00:27:26.329Z,38.83
2022-12-01T00:29:56.207Z,39.63
2022-12-01T00:32:25.466Z,38.40
2022-12-01T00:34:53.314Z,38.03
2022-12-01T00:37:21.183Z,36.53
2022-12-01T00:39:50.224Z,37.60
2022-12-01T00:42:20.796Z,38.80
2022-12-01T00:44:51.282Z,39.87
2022-12-01T00:47:19.158Z,40.70
2022-12-01T00:49:48.928Z,35.97
2022-12-01T00:52:18.131Z,35.00
2022-12-01T00:54:46.709Z,36.57
2022-12-01T00:57:14.978Z,37.27
2022-12-01T00:59:42.945Z,37.87
2022-12-01T01:02:10.935Z,39.37
2022-12-01T01:04:38.951Z,37.80
2022-12-01T01:07:13.161Z,38.70
2022-12-01T01:09:41.108Z,38.93
2022-12-01T01:12:09.450Z,37.00
2022-12-01T01:14:38.952Z,42.40
2022-12-01T01:17:09.471Z,38.37
2022-12-01T01:19:39.282Z,38.33
2022-12-01T01:22:11.763Z,42.40
2022-12-01T01:24:43.838Z,41.00
2022-12-01T01:27:13.099Z,36.70
2022-12-01T01:29:42.967Z,42.47
2022-12-01T01:32:18.799Z,37.30
2022-12-01T01:34:49.108Z,40.10
2022-12-01T01:37:29.368Z,40.67
2022-12-01T01:39:57.248Z,37.27
2022-12-01T01:42:27.916Z,42.30
2022-12-01T01:44:57.573Z,41.60
2022-12-01T01:47:30.018Z,40.13
2022-12-01T01:50:11.694Z,38.50
2022-12-01T01:52:45.264Z,38.57
2022-12-01T01:55:14.194Z,40.40
2022-12-01T01:57:43.096Z,39.33
2022-12-01T02:00:13.799Z,40.53
2022-12-01T02:02:44.558Z,37.80
2022-12-01T02:05:15.720Z,38.70
2022-12-01T02:07:45.522Z,36.37
2022-12-01T02:10:22.321Z,37.50
2022-12-01T02:13:09.664Z,34.23
2022-12-01T02:15:45.637Z,40.00
2022-12-01T02:18:27.265Z,36.00
2022-12-01T02:21:17.613Z,38.00
2022-12-01T02:24:26.418Z,39.03
2022-12-01T02:27:02.094Z,41.80
2022-12-01T02:30:10.359Z,39.40
2022-12-01T02:32:57.773Z,40.97
2022-12-01T02:35:35.936Z,41.77
2022-12-01T02:38:18.666Z,42.07
2022-12-01T02:40:53.287Z,39.93
2022-12-01T02:43:37.080Z,38.13
2022-12-01T02:46:11.286Z,46.40
2022-12-01T02:48:44.073Z,41.00
2022-12-01T02:51:15.620Z,42.27
2022-12-01T02:53:43.754Z,43.50
2022-12-01T02:56:16.004Z,41.40
2022-12-01T02:58:44.786Z,40.47
2022-12-01T03:01:26.211Z,39.83
2022-12-01T03:04:12.326Z,40.63
2022-12-01T03:06:47.102Z,39.63
2022-12-01T03:09:24.783Z,41.23
2022-12-01T03:12:06.410Z,40.63
2022-12-01T03:14:45.273Z,44.63
2022-12-01T03:17:25.840Z,41.17
2022-12-01T03:20:04.665Z,46.27
2022-12-01T03:22:40.711Z,41.40
2022-12-01T03:25:10.141Z,43.93
2022-12-01T03:28:00.686Z,45.77
2022-12-01T03:30:33.085Z,47.40
2022-12-01T03:33:08.686Z,42.30
2022-12-01T03:35:42.875Z,47.57
2022-12-01T03:38:16.222Z,41.70
2022-12-01T03:40:45.942Z,42.13
2022-12-01T03:43:19.631Z,42.17
2022-12-01T03:45:56.088Z,42.93
2022-12-01T03:48:25.178Z,41.87
2022-12-01T03:51:03.867Z,42.80
2022-12-01T03:53:39.606Z,41.27
2022-12-01T03:56:09.370Z,42.13
2022-12-01T03:58:41.763Z,44.57
2022-12-01T04:01:10.644Z,43.53
2022-12-01T04:03:38.574Z,39.20
2022-12-01T04:06:08.491Z,45.50
2022-12-01T04:08:37.485Z,42.63
2022-12-01T04:11:32.179Z,40.70
2022-12-01T04:13:59.483Z,42.43
2022-12-01T04:16:27.446Z,42.77
2022-12-01T04:18:55.413Z,44.33
2022-12-01T04:21:24.643Z,45.63
2022-12-01T04:24:09.060Z,39.57
2022-12-01T04:26:39.072Z,39.60
2022-12-01T04:29:08.910Z,45.13
2022-12-01T04:31:41.696Z,43.23
2022-12-01T04:34:11.295Z,40.73
2022-12-01T04:36:42.609Z,42.83
2022-12-01T04:39:10.550Z,42.73
2022-12-01T04:41:38.379Z,42.53
2022-12-01T04:44:06.451Z,38.10
2022-12-01T04:46:34.715Z,42.20
2022-12-01T04:49:02.604Z,43.87
2022-12-01T04:51:30.471Z,42.53
2022-12-01T04:54:02.503Z,42.97
2022-12-01T04:56:30.413Z,42.10
2022-12-01T04:58:59.018Z,41.77
2022-12-01T05:01:27.567Z,45.87
2022-12-01T05:03:55.531Z,46.40
2022-12-01T05:06:25.316Z,43.93
2022-12-01T05:08:56.662Z,41.33
2022-12-01T05:11:27.586Z,44.83
2022-12-01T05:14:02.934Z,40.33
2022-12-01T05:16:32.785Z,40.07
2022-12-01T05:19:20.136Z,39.57
2022-12-01T05:22:56.793Z,43.10
2022-12-01T05:31:18.073Z,40.53
2022-12-01T05:34:16.933Z,40.13
2022-12-01T05:45:35.268Z,45.70
2022-12-01T05:48:03.678Z,44.13
2022-12-01T05:50:33.726Z,41.67
2022-12-01T05:53:01.994Z,42.97
2022-12-01T05:55:29.877Z,45.70
2022-12-01T05:57:57.685Z,45.23
2022-12-01T06:00:25.717Z,39.83
2022-12-01T06:02:53.612Z,40.37
2022-12-01T06:05:21.552Z,40.67
2022-12-01T06:07:50.845Z,41.30
2022-12-01T06:10:20.237Z,40.20
2022-12-01T06:12:49.614Z,42.73
2022-12-01T06:15:17.716Z,40.67
2022-12-01T06:17:49.132Z,36.43
2022-12-01T06:20:24.464Z,41.27
2022-12-01T06:23:00.834Z,40.83
2022-12-01T06:25:29.008Z,41.87
2022-12-01T06:28:03.208Z,38.50
2022-12-01T06:30:59.321Z,44.20
2022-12-01T06:33:31.394Z,41.70
2022-12-01T06:36:00.005Z,36.80
2022-12-01T06:38:32.272Z,47.47
2022-12-01T06:41:00.239Z,42.07
2022-12-01T06:43:28.058Z,45.80
2022-12-01T06:46:01.283Z,43.00
2022-12-01T06:48:30.148Z,43.63
2022-12-01T06:50:58.559Z,49.90
2022-12-01T06:53:27.379Z,39.80
2022-12-01T06:56:00.139Z,43.23
2022-12-01T06:58:28.448Z,41.17
2022-12-01T07:00:57.366Z,47.37
2022-12-01T07:03:25.736Z,43.20
2022-12-01T07:05:58.435Z,45.43
2022-12-01T07:08:26.456Z,48.33
2022-12-01T07:11:03.439Z,39.67
2022-12-01T07:14:44.846Z,42.27
2022-12-01T07:17:13.817Z,42.67
2022-12-01T07:19:41.795Z,47.10
2022-12-01T07:22:09.708Z,41.33
2022-12-01T07:24:37.575Z,46.33
2022-12-01T07:27:06.850Z,41.17
2022-12-01T07:29:34.727Z,50.93
2022-12-01T07:32:02.551Z,47.43
2022-12-01T07:34:30.369Z,48.57
2022-12-01T07:36:58.389Z,40.30
2022-12-01T07:39:26.267Z,47.40
2022-12-01T07:41:54.185Z,46.47
2022-12-01T07:44:23.454Z,45.27
2022-12-01T07:46:51.450Z,40.10
2022-12-01T07:49:19.459Z,45.93
2022-12-01T07:51:47.684Z,46.23
2022-12-01T07:54:16.799Z,42.67
2022-12-01T07:56:44.832Z,45.97
2022-12-01T07:59:13.058Z,47.50
2022-12-01T08:01:44.763Z,46.33
2022-12-01T08:07:33.695Z,42.90
2022-12-01T08:10:16.553Z,45.60
2022-12-01T08:12:44.438Z,42.63
2022-12-01T08:15:14.671Z,48.13
2022-12-01T08:20:27.693Z,48.23
2022-12-01T08:23:10.623Z,46.03
2022-12-01T08:25:38.559Z,41.60
2022-12-01T08:28:24.644Z,49.10
2022-12-01T08:30:54.768Z,47.50
2022-12-01T08:33:23.887Z,47.90
2022-12-01T08:35:54.805Z,42.20
2022-12-01T08:38:22.674Z,48.30
2022-12-01T08:40:50.470Z,44.67
2022-12-01T08:43:49.553Z,46.33
2022-12-01T08:46:08.643Z,45.00
2022-12-01T08:48:39.053Z,41.63
2022-12-01T08:51:20.767Z,42.37
2022-12-01T08:54:09.687Z,43.73
2022-12-01T09:00:15.333Z,42.07
2022-12-01T09:03:53.076Z,44.83
2022-12-01T09:06:23.797Z,47.87
2022-12-01T09:09:10.693Z,46.13
2022-12-01T09:11:38.660Z,46.57
2022-12-01T09:17:18.216Z,46.20
2022-12-01T09:19:54.976Z,46.10
2022-12-01T09:22:26.121Z,45.40
2022-12-01T09:24:55.957Z,46.90
2022-12-01T09:41:28.134Z,48.47
2022-12-01T09:44:20.865Z,45.07
2022-12-01T09:47:08.784Z,45.30
2022-12-01T09:49:47.566Z,46.53
2022-12-01T09:52:41.628Z,54.87
2022-12-01T09:55:16.147Z,53.87
2022-12-01T09:57:49.223Z,58.10
2022-12-01T10:00:20.360Z,53.30
2022-12-01T10:02:54.569Z,53.20
2022-12-01T10:05:24.990Z,49.43
2022-12-01T10:08:15.872Z,55.50
2022-12-01T10:10:46.910Z,51.07
2022-12-01T10:13:42.745Z,51.90
2022-12-01T10:16:14.860Z,51.27
2022-12-01T10:19:20.523Z,51.17
2022-12-01T10:22:16.288Z,49.80
2022-12-01T10:24:57.943Z,51.63
2022-12-01T10:27:38.467Z,54.20
2022-12-01T10:30:17.024Z,50.47
2022-12-01T10:32:59.689Z,53.33
2022-12-01T10:35:35.927Z,48.57
2022-12-01T10:38:18.542Z,48.17
2022-12-01T10:43:43.315Z,52.17
2022-12-01T10:46:22.373Z,52.53
2022-12-01T10:48:58.995Z,54.40
2022-12-01T10:51:28.538Z,45.20
2022-12-01T10:54:03.364Z,51.23
2022-12-01T10:56:37.035Z,46.53
2022-12-01T10:59:25.072Z,40.63
2022-12-01T11:01:58.283Z,43.63
2022-12-01T11:04:37.720Z,40.93
2022-12-01T11:07:07.205Z,40.70
2022-12-01T11:09:44.249Z,42.73
2022-12-01T11:12:16.523Z,43.47
2022-12-01T11:14:49.449Z,41.30
2022-12-01T11:17:32.404Z,41.43
2022-12-01T11:20:17.871Z,43.00
2022-12-01T11:22:47.301Z,42.23
2022-12-01T11:25:23.180Z,43.67
2022-12-01T11:27:54.253Z,42.10
2022-12-01T11:30:25.325Z,38.20
2022-12-01T11:32:57.003Z,45.10
2022-12-01T11:35:27.951Z,38.20
2022-12-01T11:40:58.132Z,39.30
2022-12-01T11:43:32.107Z,37.13
2022-12-01T11:46:05.238Z,37.97
2022-12-01T11:48:37.742Z,39.17
2022-12-01T11:51:11.872Z,34.27
2022-12-01T11:53:41.933Z,34.10
2022-12-01T11:56:26.367Z,33.10
2022-12-01T11:59:13.816Z,32.23
2022-12-01T12:02:11.274Z,31.63
2022-12-01T12:05:15.755Z,30.33
2022-12-01T12:07:50.592Z,27.30
2022-12-01T12:10:43.107Z,28.30
2022-12-01T12:13:32.887Z,30.87
2022-12-01T12:16:21.988Z,30.70
2022-12-01T12:19:12.514Z,33.73
2022-12-01T12:21:51.069Z,32.10
2022-12-01T12:24:46.238Z,30.07
2022-12-01T12:27:24.030Z,32.90
2022-12-01T12:30:09.537Z,31.27
2022-12-01T12:33:08.943Z,31.37
2022-12-01T12:35:49.882Z,31.87
2022-12-01T12:38:46.131Z,29.17
2022-12-01T12:41:32.097Z,31.47
2022-12-01T12:44:41.071Z,30.50
2022-12-01T12:47:29.391Z,32.27
2022-12-01T12:50:09.953Z,30.57
2022-12-01T12:52:42.572Z,26.53
2022-12-01T12:55:22.296Z,24.90
2022-12-01T12:57:55.027Z,27.40
2022-12-01T13:00:26.805Z,26.37
2022-12-01T13:02:58.703Z,26.37
2022-12-01T13:05:32.824Z,25.90
2022-12-01T13:08:06.703Z,23.57
2022-12-01T13:10:44.325Z,23.27
2022-12-01T13:13:24.217Z,22.00
2022-12-01T13:15:54.325Z,24.00
2022-12-01T13:18:29.423Z,23.77
2022-12-01T13:20:58.777Z,26.33
2022-12-01T13:23:28.593Z,25.17
2022-12-01T13:26:04.471Z,27.20
2022-12-01T13:28:38.240Z,25.83
2022-12-01T13:31:09.016Z,25.93
2022-12-01T13:33:38.550Z,27.20
2022-12-01T13:39:03.130Z,26.67
2022-12-01T13:41:34.579Z,25.70
2022-12-01T13:44:07.086Z,28.63
2022-12-01T13:46:53.023Z,24.90
2022-12-01T13:49:43.833Z,23.13
2022-12-01T13:52:35.739Z,25.37
2022-12-01T13:55:27.328Z,21.33
2022-12-01T13:58:41.154Z,22.70
2022-12-01T14:01:49.321Z,24.37
2022-12-01T14:04:31.953Z,28.67
2022-12-01T14:07:24.931Z,27.90
2022-12-01T14:09:54.808Z,24.30
2022-12-01T14:12:32.862Z,21.93
2022-12-01T14:15:35.139Z,25.73
2022-12-01T14:18:07.118Z,21.83
2022-12-01T14:20:55.669Z,22.00
2022-12-01T14:23:35.232Z,23.43
2022-12-01T14:26:18.193Z,23.63
2022-12-01T14:29:30.732Z,24.53
2022-12-01T14:32:28.432Z,19.67
2022-12-01T14:35:15.363Z,22.30
2022-12-01T14:37:50.716Z,20.17
2022-12-01T14:40:25.080Z,19.53
2022-12-01T14:43:15.634Z,20.43
2022-12-01T14:45:57.077Z,20.23
2022-12-01T14:48:35.743Z,18.37
2022-12-01T14:51:18.493Z,19.83
2022-12-01T14:53:53.159Z,20.53
2022-12-01T14:56:24.924Z,18.13
2022-12-01T14:58:55.511Z,20.80
2022-12-01T15:01:25.112Z,19.40
2022-12-01T15:04:01.458Z,19.90
2022-12-01T15:06:38.506Z,19.13
2022-12-01T15:12:08.016Z,20.17
2022-12-01T15:14:39.092Z,20.53
2022-12-01T15:17:08.976Z,20.77
2022-12-01T15:19:40.611Z,19.80
2022-12-01T15:22:15.624Z,21.20
2022-12-01T15:24:48.381Z,22.50
2022-12-01T15:27:29.063Z,18.43
2022-12-01T15:30:04.916Z,20.27
2022-12-01T15:32:37.813Z,19.77
2022-12-01T15:35:25.318Z,19.33
2022-12-01T15:37:55.992Z,19.90
2022-12-01T15:41:13.214Z,18.03
2022-12-01T15:43:20.122Z,20.30
2022-12-01T15:45:55.495Z,18.97
2022-12-01T15:48:32.045Z,20.60
2022-12-01T15:51:05.808Z,20.63
2022-12-01T15:53:38.731Z,21.33
2022-12-01T15:56:12.111Z,20.87
2022-12-01T15:58:47.101Z,19.03
2022-12-01T16:01:17.703Z,20.10
2022-12-01T16:03:57.095Z,17.20
2022-12-01T16:06:29.193Z,22.67
2022-12-01T16:09:00.323Z,17.97
2022-12-01T16:11:28.730Z,17.90
2022-12-01T16:14:13.508Z,17.03
2022-12-01T16:16:46.466Z,18.17
2022-12-01T16:19:36.189Z,20.03
2022-12-01T16:22:18.145Z,21.97
2022-12-01T16:24:49.635Z,18.23
2022-12-01T16:27:24.287Z,17.63
2022-12-01T16:30:10.213Z,16.87
2022-12-01T16:32:41.339Z,19.90
2022-12-01T16:35:24.649Z,17.33
2022-12-01T16:37:55.925Z,17.80
2022-12-01T16:40:29.530Z,17.03
2022-12-01T16:42:58.579Z,18.60
2022-12-01T16:45:27.033Z,18.20
2022-12-01T16:47:55.813Z,17.63
2022-12-01T16:50:24.660Z,16.83
2022-12-01T16:52:54.493Z,20.20
2022-12-01T16:55:28.729Z,17.90
2022-12-01T16:57:59.479Z,18.20
2022-12-01T17:00:29.626Z,18.67
2022-12-01T17:02:58.123Z,16.07
2022-12-01T17:05:26.111Z,18.03
2022-12-01T17:08:03.781Z,19.13
2022-12-01T17:10:33.267Z,16.80
2022-12-01T17:13:06.440Z,16.70
2022-12-01T17:15:34.313Z,17.03
2022-12-01T17:18:02.185Z,18.33
2022-12-01T17:20:30.013Z,18.00
2022-12-01T17:23:15.262Z,19.77
2022-12-01T17:25:46.481Z,16.90
2022-12-01T17:28:32.604Z,17.67
2022-12-01T17:31:09.469Z,16.73
2022-12-01T17:33:50.621Z,16.60
2022-12-01T17:39:06.504Z,18.33
2022-12-01T17:41:42.930Z,18.63
2022-12-01T17:44:16.614Z,18.37
2022-12-01T17:46:51.999Z,20.07
2022-12-01T17:49:24.681Z,16.23
2022-12-01T17:51:55.310Z,18.73
2022-12-01T17:54:41.597Z,17.47
2022-12-01T17:57:09.422Z,20.70
2022-12-01T17:59:37.681Z,17.60
2022-12-01T18:02:06.247Z,15.33
2022-12-01T18:04:38.006Z,16.03
2022-12-01T18:07:06.633Z,20.30
2022-12-01T18:09:44.982Z,16.23
2022-12-01T18:12:14.241Z,17.63
2022-12-01T18:14:53.521Z,18.47
2022-12-01T18:17:25.999Z,22.10
2022-12-01T18:19:54.022Z,19.77
2022-12-01T18:22:25.652Z,21.00
2022-12-01T18:24:53.600Z,18.13
2022-12-01T18:27:27.455Z,19.73
2022-12-01T18:32:39.364Z,21.40
2022-12-01T18:35:07.991Z,16.13
2022-12-01T18:37:45.077Z,17.20
2022-12-01T18:43:27.443Z,17.20
2022-12-01T18:46:01.997Z,16.47
2022-12-01T18:48:29.918Z,16.87
2022-12-01T18:50:59.943Z,20.17
2022-12-01T18:56:24.226Z,18.20
2022-12-01T18:59:10.800Z,18.47
2022-12-01T19:01:57.450Z,19.97
2022-12-01T19:04:35.424Z,19.20
2022-12-01T19:07:30.146Z,22.30
2022-12-01T19:10:17.267Z,22.60
2022-12-01T19:12:45.214Z,24.33
2022-12-01T19:15:15.027Z,20.13
2022-12-01T19:17:42.918Z,22.90
2022-12-01T19:20:12.045Z,20.13
2022-12-01T19:22:42.222Z,22.33
2022-12-01T19:25:13.249Z,18.77
2022-12-01T19:27:54.232Z,18.20
2022-12-01T19:30:24.116Z,21.33
2022-12-01T19:32:52.285Z,22.90
2022-12-01T19:35:23.000Z,24.73
2022-12-01T19:37:54.958Z,26.33
2022-12-01T19:40:38.928Z,26.70
2022-12-01T19:43:15.199Z,26.20
2022-12-01T19:45:57.246Z,32.53
2022-12-01T19:48:27.472Z,30.47
2022-12-01T19:50:55.394Z,30.80
2022-12-01T19:53:41.273Z,29.70
2022-12-01T19:59:21.486Z,29.33
2022-12-01T20:01:50.756Z,30.10
2022-12-01T20:04:18.744Z,28.83
2022-12-01T20:06:46.607Z,31.73
2022-12-01T20:09:14.790Z,30.43
2022-12-01T20:11:42.666Z,30.07
2022-12-01T20:14:11.313Z,29.23
2022-12-01T20:16:39.390Z,30.27
2022-12-01T20:19:08.722Z,33.00
2022-12-01T20:21:39.260Z,31.00
2022-12-01T20:24:11.097Z,29.23
2022-12-01T20:26:41.150Z,30.23
2022-12-01T20:29:32.713Z,28.70
2022-12-01T20:32:09.049Z,30.20
2022-12-01T20:34:38.308Z,30.60
2022-12-01T20:37:06.163Z,34.00
2022-12-01T20:39:36.824Z,34.23
2022-12-01T20:42:05.013Z,34.03
2022-12-01T20:44:32.855Z,31.00
2022-12-01T20:47:09.403Z,33.33
2022-12-01T20:49:39.260Z,32.70
2022-12-01T20:52:07.310Z,33.73
2022-12-01T20:54:35.173Z,29.87
2022-12-01T20:57:03.020Z,36.33
2022-12-01T20:59:30.940Z,33.60
2022-12-01T21:01:58.925Z,34.63
2022-12-01T21:04:26.883Z,36.20
2022-12-01T21:06:57.960Z,34.27
2022-12-01T21:09:26.648Z,32.40
2022-12-01T21:12:12.251Z,36.53
2022-12-01T21:14:47.546Z,36.43
2022-12-01T21:17:28.445Z,37.63
2022-12-01T21:20:02.349Z,38.67
2022-12-01T21:22:31.987Z,40.30
2022-12-01T21:25:07.522Z,39.50
2022-12-01T21:27:35.791Z,41.77
2022-12-01T21:30:15.140Z,42.77
2022-12-01T21:32:44.483Z,40.70
2022-12-01T21:35:19.033Z,42.40
2022-12-01T21:37:49.859Z,41.97
2022-12-01T21:40:20.496Z,39.50
2022-12-01T21:42:48.609Z,41.87
2022-12-01T21:45:23.892Z,41.10
2022-12-01T21:47:51.976Z,43.43
2022-12-01T21:50:23.388Z,42.00
2022-12-01T21:52:52.847Z,43.73
2022-12-01T21:55:37.176Z,45.17
2022-12-01T21:58:23.271Z,46.80
2022-12-01T22:00:54.555Z,47.33
2022-12-01T22:03:33.922Z,46.63
2022-12-01T22:06:28.773Z,48.03
2022-12-01T22:09:48.992Z,48.73
2022-12-01T22:12:27.522Z,51.00
2022-12-01T22:15:11.814Z,47.53
2022-12-01T22:17:39.847Z,50.10
2022-12-01T22:20:23.500Z,50.90
2022-12-01T22:22:51.461Z,53.47
2022-12-01T22:25:25.829Z,50.47
2022-12-01T22:27:54.469Z,49.00
2022-12-01T22:30:24.285Z,58.53
2022-12-01T22:32:57.371Z,53.43
2022-12-01T22:35:30.386Z,49.67
2022-12-01T22:38:16.473Z,49.93
2022-12-01T22:40:59.213Z,53.43
2022-12-01T22:43:34.108Z,53.60
2022-12-01T22:46:21.054Z,58.27
2022-12-01T22:48:51.729Z,56.80
2022-12-01T22:51:44.049Z,60.80
2022-12-01T22:54:27.477Z,56.33
2022-12-01T22:57:06.215Z,60.37
2022-12-01T22:59:36.297Z,57.93
2022-12-01T23:02:20.421Z,53.80
2022-12-01T23:05:07.847Z,53.97
2022-12-01T23:07:37.466Z,60.80
2022-12-01T23:10:12.651Z,55.33
2022-12-01T23:12:42.306Z,55.97
2022-12-01T23:15:22.299Z,55.67
2022-12-01T23:17:51.052Z,55.30
2022-12-01T23:20:31.801Z,58.37
2022-12-01T23:23:02.228Z,60.77
2022-12-01T23:25:31.792Z,53.87
2022-12-01T23:28:04.502Z,53.90
2022-12-01T23:30:32.700Z,56.00
2022-12-01T23:33:14.540Z,52.20
2022-12-01T23:35:54.175Z,54.00
2022-12-01T23:38:24.666Z,52.80
2022-12-01T23:40:53.876Z,56.50
2022-12-01T23:46:19.504Z,50.47
2022-12-01T23:48:52.116Z,51.37
2022-12-01T23:51:24.231Z,52.30
2022-12-01T23:53:53.125Z,55.83
2022-12-01T23:56:27.547Z,57.27
2022-12-01T23:58:57.760Z,55.27
